createdAt,value
2022-08-03T00:00:15.678Z,63.01
2022-08-03T00:02:47.681Z,63.20
2022-08-03T00:05:19.866Z,63.50
2022-08-03T00:07:51.805Z,63.38
2022-08-03T00:10:25.004Z,63.63
2022-08-03T00:12:57.099Z,64.58
2022-08-03T00:15:29.141Z,64.66
2022-08-03T00:18:01.235Z,64.33
2022-08-03T00:20:33.191Z,64.69
2022-08-03T00:23:06.056Z,65.05
2022-08-03T00:25:38.987Z,64.92
2022-08-03T00:28:10.961Z,65.25
2022-08-03T00:30:42.927Z,65.59
2022-08-03T00:33:17.321Z,65.66
2022-08-03T00:35:50.114Z,65.88
2022-08-03T00:38:22.493Z,65.67
2022-08-03T00:40:55.969Z,65.57
2022-08-03T00:43:27.987Z,66.18
2022-08-03T00:46:00.036Z,66.14
2022-08-03T00:48:33.682Z,66.21
2022-08-03T00:51:06.926Z,66.06
2022-08-03T00:53:39.008Z,66.53
2022-08-03T00:56:15.292Z,66.37
2022-08-03T00:58:47.775Z,66.22
2022-08-03T01:01:19.769Z,66.89
2022-08-03T01:03:51.821Z,66.78
2022-08-03T01:06:30.542Z,66.40
2022-08-03T01:09:17.214Z,67.26
2022-08-03T01:12:01.924Z,66.80
2022-08-03T01:14:54.553Z,66.99
2022-08-03T01:17:56.823Z,67.08
2022-08-03T01:20:35.528Z,66.57
2022-08-03T01:23:29.655Z,66.57
2022-08-03T01:26:50.098Z,66.46
2022-08-03T01:29:43.385Z,66.80
2022-08-03T01:33:01.091Z,66.73
2022-08-03T01:35:39.923Z,66.99
2022-08-03T01:38:25.183Z,67.21
2022-08-03T01:40:57.966Z,66.33
2022-08-03T01:44:26.792Z,66.93
2022-08-03T01:46:25.834Z,66.27
2022-08-03T01:48:59.607Z,66.31
2022-08-03T01:51:57.924Z,67.13
2022-08-03T01:54:26.118Z,67.19
2022-08-03T01:56:59.916Z,68.19
2022-08-03T01:59:35.368Z,67.93
2022-08-03T02:02:19.526Z,67.97
2022-08-03T02:05:02.173Z,68.22
2022-08-03T02:07:35.554Z,67.78
2022-08-03T02:10:09.822Z,67.77
2022-08-03T02:12:46.074Z,68.16
2022-08-03T02:15:19.600Z,68.52
2022-08-03T02:17:53.288Z,68.48
2022-08-03T02:20:26.270Z,67.92
2022-08-03T02:22:58.319Z,68.80
2022-08-03T02:25:32.714Z,69.03
2022-08-03T02:28:14.857Z,68.70
2022-08-03T02:30:55.417Z,68.57
2022-08-03T02:33:33.421Z,69.33
2022-08-03T02:36:06.752Z,68.59
2022-08-03T02:38:42.966Z,69.10
2022-08-03T02:41:18.638Z,69.39
2022-08-03T02:44:06.010Z,68.96
2022-08-03T02:46:44.596Z,69.38
2022-08-03T02:49:40.690Z,69.75
2022-08-03T02:52:17.143Z,70.52
2022-08-03T02:54:53.911Z,70.62
2022-08-03T02:57:28.902Z,70.81
2022-08-03T03:00:01.669Z,71.01
2022-08-03T03:02:34.822Z,71.07
2022-08-03T03:05:53.146Z,70.84
2022-08-03T03:08:00.947Z,71.77
2022-08-03T03:10:33.453Z,71.66
2022-08-03T03:13:06.192Z,71.11
2022-08-03T03:15:39.925Z,71.14
2022-08-03T03:18:13.045Z,71.33
2022-08-03T03:20:46.571Z,71.55
2022-08-03T03:23:23.424Z,71.47
2022-08-03T03:25:58.566Z,71.54
2022-08-03T03:28:32.012Z,71.54
2022-08-03T03:31:08.353Z,70.82
2022-08-03T03:33:40.538Z,70.82
2022-08-03T03:36:12.861Z,71.04
2022-08-03T03:38:45.075Z,71.26
2022-08-03T03:41:17.602Z,71.16
2022-08-03T03:43:50.937Z,70.81
2022-08-03T03:46:23.593Z,71.28
2022-08-03T03:48:55.820Z,71.13
2022-08-03T03:51:27.799Z,71.45
2022-08-03T03:54:02.532Z,71.43
2022-08-03T03:56:34.542Z,70.95
2022-08-03T03:59:06.512Z,71.50
2022-08-03T04:01:40.047Z,71.48
2022-08-03T04:04:30.322Z,71.43
2022-08-03T04:07:21.105Z,72.40
2022-08-03T04:10:14.418Z,71.90
2022-08-03T04:12:50.379Z,71.90
2022-08-03T04:15:23.801Z,71.79
2022-08-03T04:17:59.287Z,71.33
2022-08-03T04:20:34.509Z,71.99
2022-08-03T04:23:14.199Z,72.16
2022-08-03T04:25:51.871Z,72.32
2022-08-03T04:28:30.981Z,72.24
2022-08-03T04:31:05.561Z,72.75
2022-08-03T04:33:39.878Z,72.74
2022-08-03T04:36:18.324Z,73.12
2022-08-03T04:39:04.692Z,72.85
2022-08-03T04:42:04.325Z,72.39
2022-08-03T04:44:31.954Z,72.54
2022-08-03T04:47:04.397Z,72.20
2022-08-03T04:49:40.738Z,72.45
2022-08-03T04:52:13.235Z,72.05
2022-08-03T04:54:50.729Z,72.36
2022-08-03T04:57:23.642Z,72.12
2022-08-03T05:00:02.139Z,71.68
2022-08-03T05:02:35.320Z,71.71
2022-08-03T05:05:07.786Z,71.90
2022-08-03T05:07:40.840Z,71.70
2022-08-03T05:10:14.992Z,71.25
2022-08-03T05:12:48.862Z,71.67
2022-08-03T05:15:20.971Z,71.05
2022-08-03T05:17:52.930Z,70.86
2022-08-03T05:20:24.888Z,70.66
2022-08-03T05:22:57.529Z,70.01
2022-08-03T05:25:30.095Z,69.14
2022-08-03T05:28:02.078Z,69.26
2022-08-03T05:30:34.711Z,68.09
2022-08-03T05:33:08.967Z,68.06
2022-08-03T05:35:57.882Z,68.12
2022-08-03T05:38:34.592Z,67.63
2022-08-03T05:41:22.540Z,67.60
2022-08-03T05:43:56.181Z,66.95
2022-08-03T05:46:28.131Z,66.86
2022-08-03T05:49:00.190Z,66.61
2022-08-03T05:51:32.212Z,66.32
2022-08-03T05:54:04.508Z,65.98
2022-08-03T05:56:36.493Z,66.37
2022-08-03T05:59:35.821Z,65.26
2022-08-03T06:02:00.682Z,65.22
2022-08-03T06:04:32.769Z,64.97
2022-08-03T06:07:04.757Z,65.14
2022-08-03T06:10:33.827Z,65.38
2022-08-03T06:12:29.456Z,64.85
2022-08-03T06:15:02.066Z,64.96
2022-08-03T06:17:37.414Z,64.95
2022-08-03T06:20:10.962Z,64.54
2022-08-03T06:22:50.542Z,63.46
2022-08-03T06:25:23.104Z,63.28
2022-08-03T06:27:55.080Z,63.13
2022-08-03T06:30:27.324Z,62.81
2022-08-03T06:32:59.277Z,62.78
2022-08-03T06:35:31.381Z,62.80
2022-08-03T06:38:03.357Z,63.24
2022-08-03T06:40:40.230Z,63.26
2022-08-03T06:43:13.973Z,62.79
2022-08-03T06:45:48.074Z,63.00
2022-08-03T06:48:20.035Z,63.07
2022-08-03T06:50:52.091Z,62.88
2022-08-03T06:53:24.015Z,63.24
2022-08-03T06:55:56.247Z,63.42
2022-08-03T06:58:28.254Z,63.55
2022-08-03T07:01:00.867Z,63.73
2022-08-03T07:03:33.074Z,63.08
2022-08-03T07:06:05.135Z,62.60
2022-08-03T07:08:37.471Z,62.31
2022-08-03T07:11:09.434Z,61.95
2022-08-03T07:13:41.475Z,62.38
2022-08-03T07:16:13.432Z,62.04
2022-08-03T07:18:45.393Z,61.98
2022-08-03T07:21:17.371Z,61.72
2022-08-03T07:23:49.370Z,61.97
2022-08-03T07:26:21.464Z,61.41
2022-08-03T07:28:53.446Z,61.25
2022-08-03T07:31:25.415Z,61.01
2022-08-03T07:33:57.478Z,60.79
2022-08-03T07:36:29.519Z,60.42
2022-08-03T07:39:01.490Z,59.77
2022-08-03T07:41:50.628Z,59.34
2022-08-03T07:44:22.621Z,59.02
2022-08-03T07:46:54.668Z,58.66
2022-08-03T07:49:28.891Z,58.22
2022-08-03T07:52:19.628Z,57.45
2022-08-03T07:54:51.762Z,56.15
2022-08-03T07:57:23.996Z,56.44
2022-08-03T08:00:01.717Z,56.35
2022-08-03T08:02:34.706Z,56.26
2022-08-03T08:05:07.296Z,55.36
2022-08-03T08:07:39.804Z,54.52
2022-08-03T08:10:11.863Z,53.78
2022-08-03T08:12:44.997Z,50.38
2022-08-03T08:15:17.018Z,50.47
2022-08-03T08:17:53.622Z,48.81
2022-08-03T08:20:38.089Z,48.47
2022-08-03T08:23:38.652Z,46.85
2022-08-03T08:26:02.315Z,45.92
2022-08-03T08:28:34.333Z,45.35
2022-08-03T08:31:06.519Z,44.05
2022-08-03T08:36:30.411Z,44.85
2022-08-03T08:39:02.594Z,43.56
2022-08-03T08:41:34.986Z,42.62
2022-08-03T08:44:08.343Z,41.84
2022-08-03T08:46:40.502Z,41.04
2022-08-03T08:49:17.497Z,40.09
2022-08-03T08:52:00.499Z,40.87
2022-08-03T08:54:33.631Z,39.56
2022-08-03T08:57:16.503Z,39.23
2022-08-03T08:59:58.992Z,39.29
2022-08-03T09:02:31.673Z,38.85
2022-08-03T09:05:07.484Z,39.38
2022-08-03T09:07:41.932Z,39.63
2022-08-03T09:10:19.909Z,38.43
2022-08-03T09:12:53.111Z,39.95
2022-08-03T09:15:28.693Z,39.33
2022-08-03T09:18:02.801Z,38.95
2022-08-03T09:20:36.952Z,39.88
2022-08-03T09:23:58.913Z,40.57
2022-08-03T09:26:03.095Z,40.16
2022-08-03T09:29:00.545Z,39.88
2022-08-03T09:31:43.138Z,39.12
2022-08-03T09:34:18.411Z,37.86
2022-08-03T09:36:51.647Z,36.45
2022-08-03T09:39:40.923Z,36.41
2022-08-03T09:42:19.060Z,35.83
2022-08-03T09:44:58.017Z,36.86
2022-08-03T09:47:36.426Z,37.68
2022-08-03T09:50:10.735Z,38.07
2022-08-03T09:52:50.180Z,38.46
2022-08-03T09:56:35.605Z,38.37
2022-08-03T09:58:17.121Z,37.99
2022-08-03T10:01:24.494Z,37.68
2022-08-03T10:04:04.285Z,37.42
2022-08-03T10:06:36.766Z,35.50
2022-08-03T10:09:16.908Z,36.08
2022-08-03T10:11:49.517Z,34.39
2022-08-03T10:14:22.715Z,34.57
2022-08-03T10:16:54.685Z,34.40
2022-08-03T10:19:26.828Z,34.73
2022-08-03T10:22:09.922Z,33.46
2022-08-03T10:25:03.922Z,34.13
2022-08-03T10:27:42.664Z,33.64
2022-08-03T10:30:15.088Z,33.46
2022-08-03T10:32:57.672Z,33.05
2022-08-03T10:35:30.286Z,31.92
2022-08-03T10:38:10.653Z,32.34
2022-08-03T10:40:49.593Z,31.36
2022-08-03T10:43:53.609Z,31.73
2022-08-03T10:46:27.548Z,30.40
2022-08-03T10:49:00.676Z,29.29
2022-08-03T10:51:33.701Z,29.61
2022-08-03T10:54:05.775Z,29.77
2022-08-03T10:57:13.605Z,28.60
2022-08-03T10:59:46.477Z,26.12
2022-08-03T11:02:18.621Z,24.68
2022-08-03T11:05:29.933Z,23.71
2022-08-03T11:08:31.509Z,24.04
2022-08-03T11:11:18.711Z,24.81
2022-08-03T11:14:08.238Z,24.53
2022-08-03T11:17:14.369Z,24.51
2022-08-03T11:19:57.564Z,24.55
2022-08-03T11:22:50.990Z,23.55
2022-08-03T11:25:34.832Z,23.75
2022-08-03T11:28:42.837Z,23.12
2022-08-03T11:31:48.527Z,22.78
2022-08-03T11:34:20.038Z,22.56
2022-08-03T11:37:29.941Z,22.02
2022-08-03T11:40:04.580Z,20.96
2022-08-03T11:42:36.639Z,20.40
2022-08-03T11:45:10.092Z,19.55
2022-08-03T11:47:50.648Z,18.42
2022-08-03T11:50:24.495Z,17.94
2022-08-03T11:52:56.514Z,18.21
2022-08-03T11:55:32.094Z,19.05
2022-08-03T11:59:01.219Z,18.30
2022-08-03T12:01:07.797Z,18.06
2022-08-03T12:03:39.809Z,18.13
2022-08-03T12:06:14.787Z,18.12
2022-08-03T12:08:47.411Z,18.79
2022-08-03T12:11:20.034Z,18.16
2022-08-03T12:14:45.803Z,17.90
2022-08-03T12:16:48.872Z,17.29
2022-08-03T12:19:20.901Z,16.95
2022-08-03T12:21:55.820Z,17.92
2022-08-03T12:24:42.738Z,18.23
2022-08-03T12:27:25.297Z,17.30
2022-08-03T12:29:59.476Z,16.59
2022-08-03T12:32:31.957Z,16.26
2022-08-03T12:35:04.697Z,16.49
2022-08-03T12:37:37.339Z,16.76
2022-08-03T12:40:13.215Z,16.25
2022-08-03T12:42:47.383Z,15.87
2022-08-03T12:45:27.135Z,16.93
2022-08-03T12:48:01.910Z,17.03
2022-08-03T12:50:37.257Z,15.98
2022-08-03T12:53:10.359Z,16.71
2022-08-03T12:55:57.922Z,16.51
2022-08-03T12:58:36.216Z,15.76
2022-08-03T13:01:09.856Z,15.52
2022-08-03T13:03:49.999Z,14.74
2022-08-03T13:06:25.445Z,14.77
2022-08-03T13:09:08.157Z,15.01
2022-08-03T13:11:58.079Z,16.05
2022-08-03T13:14:32.140Z,15.39
2022-08-03T13:17:06.433Z,15.20
2022-08-03T13:19:39.545Z,15.70
2022-08-03T13:22:13.989Z,16.48
2022-08-03T13:24:49.741Z,16.14
2022-08-03T13:28:03.421Z,16.61
2022-08-03T13:30:16.192Z,16.67
2022-08-03T13:33:00.712Z,16.89
2022-08-03T13:35:32.709Z,16.42
2022-08-03T13:38:04.714Z,18.22
2022-08-03T13:40:41.750Z,19.52
2022-08-03T13:43:14.005Z,20.20
2022-08-03T13:45:51.247Z,21.18
2022-08-03T13:48:34.748Z,22.18
2022-08-03T13:51:21.767Z,21.50
2022-08-03T13:53:54.784Z,20.80
2022-08-03T13:56:27.913Z,21.49
2022-08-03T13:59:00.025Z,21.30
2022-08-03T14:01:54.244Z,20.82
2022-08-03T14:04:24.082Z,21.12
2022-08-03T14:06:56.183Z,21.51
2022-08-03T14:09:28.141Z,21.95
2022-08-03T14:12:07.633Z,20.87
2022-08-03T14:14:41.107Z,19.64
2022-08-03T14:17:13.110Z,20.11
2022-08-03T14:19:53.096Z,20.51
2022-08-03T14:22:25.982Z,20.98
2022-08-03T14:24:58.075Z,21.26
2022-08-03T14:27:30.342Z,20.88
2022-08-03T14:30:02.353Z,22.15
2022-08-03T14:32:34.519Z,22.62
2022-08-03T14:35:07.099Z,22.70
2022-08-03T14:37:39.270Z,23.39
2022-08-03T14:40:11.492Z,23.91
2022-08-03T14:42:43.600Z,24.41
2022-08-03T14:45:20.468Z,24.78
2022-08-03T14:50:27.892Z,25.31
2022-08-03T14:50:50.935Z,26.29
2022-08-03T14:53:24.425Z,26.32
2022-08-03T14:55:56.971Z,26.83
2022-08-03T14:58:29.062Z,26.61
2022-08-03T15:01:01.101Z,26.32
2022-08-03T15:03:33.134Z,26.96
2022-08-03T15:06:05.146Z,25.91
2022-08-03T15:08:37.194Z,25.82
2022-08-03T15:11:09.236Z,26.04
2022-08-03T15:13:41.256Z,26.19
2022-08-03T15:16:13.203Z,26.35
2022-08-03T15:18:45.185Z,26.77
2022-08-03T15:21:46.250Z,26.29
2022-08-03T15:24:09.722Z,26.12
2022-08-03T15:26:41.993Z,26.42
2022-08-03T15:30:09.519Z,26.75
2022-08-03T15:32:09.433Z,26.35
2022-08-03T15:34:41.840Z,26.30
2022-08-03T15:37:25.666Z,26.38
2022-08-03T15:39:59.603Z,26.62
2022-08-03T15:42:34.248Z,26.69
2022-08-03T15:45:06.899Z,26.52
2022-08-03T15:47:38.999Z,26.95
2022-08-03T15:50:12.064Z,27.64
2022-08-03T15:52:44.011Z,27.44
2022-08-03T15:55:17.225Z,27.32
2022-08-03T15:59:04.358Z,27.31
2022-08-03T16:00:42.939Z,27.46
2022-08-03T16:03:15.003Z,27.59
2022-08-03T16:05:47.019Z,27.10
2022-08-03T16:08:19.017Z,27.15
2022-08-03T16:10:51.126Z,27.20
2022-08-03T16:14:14.119Z,27.65
2022-08-03T16:16:17.038Z,27.59
2022-08-03T16:18:48.986Z,28.03
2022-08-03T16:21:21.789Z,27.49
2022-08-03T16:23:56.264Z,27.71
2022-08-03T16:26:28.680Z,27.59
2022-08-03T16:29:04.292Z,27.92
2022-08-03T16:31:51.321Z,27.78
2022-08-03T16:34:23.604Z,27.97
2022-08-03T16:36:55.586Z,28.01
2022-08-03T16:39:27.611Z,28.34
2022-08-03T16:42:01.719Z,28.53
2022-08-03T16:44:33.957Z,28.63
2022-08-03T16:47:06.093Z,28.73
2022-08-03T16:49:53.743Z,28.64
2022-08-03T16:52:28.400Z,28.60
2022-08-03T16:55:00.667Z,28.20
2022-08-03T16:57:59.040Z,28.10
2022-08-03T17:00:33.960Z,28.59
2022-08-03T17:03:18.695Z,28.83
2022-08-03T17:05:51.295Z,28.92
2022-08-03T17:08:26.814Z,28.16
2022-08-03T17:10:59.381Z,27.96
2022-08-03T17:13:47.515Z,28.54
2022-08-03T17:16:19.868Z,28.72
2022-08-03T17:18:57.722Z,28.43
2022-08-03T17:21:39.798Z,28.67
2022-08-03T17:24:35.333Z,28.36
2022-08-03T17:28:51.421Z,28.28
2022-08-03T17:30:20.672Z,29.67
2022-08-03T17:32:57.943Z,29.03
2022-08-03T17:35:36.424Z,29.13
2022-08-03T17:38:16.529Z,29.55
2022-08-03T17:40:52.140Z,29.30
2022-08-03T17:43:44.365Z,29.17
2022-08-03T17:46:19.529Z,29.61
2022-08-03T17:48:52.066Z,29.39
2022-08-03T17:51:53.110Z,29.62
2022-08-03T17:54:36.903Z,30.30
2022-08-03T17:58:02.803Z,30.13
2022-08-03T18:00:54.948Z,30.33
2022-08-03T18:03:58.312Z,30.33
2022-08-03T18:06:36.040Z,30.00
2022-08-03T18:10:04.772Z,30.53
2022-08-03T18:12:07.004Z,30.68
2022-08-03T18:14:57.773Z,31.05
2022-08-03T18:17:55.655Z,31.31
2022-08-03T18:20:34.627Z,31.38
2022-08-03T18:23:25.048Z,31.89
2022-08-03T18:26:10.739Z,32.04
2022-08-03T18:28:44.967Z,32.58
2022-08-03T18:32:00.267Z,32.95
2022-08-03T18:34:16.177Z,34.58
2022-08-03T18:36:54.761Z,32.49
2022-08-03T18:39:28.815Z,33.80
2022-08-03T18:42:02.783Z,34.55
2022-08-03T18:44:53.010Z,34.51
2022-08-03T18:47:52.651Z,36.81
2022-08-03T18:50:39.085Z,38.34
2022-08-03T18:53:19.828Z,40.55
2022-08-03T18:56:26.222Z,42.18
2022-08-03T18:59:04.063Z,43.66
2022-08-03T19:02:00.610Z,45.60
2022-08-03T19:04:47.307Z,48.20
2022-08-03T19:07:27.196Z,51.10
2022-08-03T19:10:00.450Z,52.22
2022-08-03T19:12:52.231Z,54.30
2022-08-03T19:15:36.461Z,55.32
2022-08-03T19:18:17.892Z,56.69
2022-08-03T19:20:53.191Z,58.21
2022-08-03T19:23:31.060Z,59.99
2022-08-03T19:26:07.267Z,61.76
2022-08-03T19:28:59.735Z,62.06
2022-08-03T19:31:35.008Z,62.97
2022-08-03T19:34:07.530Z,64.13
2022-08-03T19:36:43.773Z,63.78
2022-08-03T19:39:16.293Z,64.34
2022-08-03T19:41:52.439Z,64.45
2022-08-03T19:44:30.563Z,65.24
2022-08-03T19:47:16.972Z,66.47
2022-08-03T19:50:05.082Z,66.63
2022-08-03T19:52:40.305Z,67.22
2022-08-03T19:55:18.263Z,67.44
2022-08-03T19:57:58.127Z,67.86
2022-08-03T20:00:36.929Z,68.88
2022-08-03T20:03:19.671Z,68.74
2022-08-03T20:05:55.058Z,68.84
2022-08-03T20:08:27.597Z,69.28
2022-08-03T20:11:00.957Z,69.06
2022-08-03T20:13:38.888Z,68.85
2022-08-03T20:16:11.324Z,69.64
2022-08-03T20:18:44.847Z,70.08
2022-08-03T20:21:20.284Z,69.95
2022-08-03T20:24:02.888Z,69.54
2022-08-03T20:26:55.474Z,70.17
2022-08-03T20:30:05.220Z,70.62
2022-08-03T20:32:26.541Z,71.06
2022-08-03T20:34:58.737Z,71.21
2022-08-03T20:37:31.237Z,71.11
2022-08-03T20:40:05.752Z,71.54
2022-08-03T20:42:37.833Z,71.61
2022-08-03T20:45:15.168Z,71.86
2022-08-03T20:48:05.411Z,72.18
2022-08-03T20:50:41.466Z,72.67
2022-08-03T20:53:15.645Z,72.67
2022-08-03T20:56:10.156Z,72.41
2022-08-03T20:58:43.215Z,72.35
2022-08-03T21:01:27.758Z,73.18
2022-08-03T21:04:11.156Z,72.85
2022-08-03T21:06:53.507Z,73.25
2022-08-03T21:09:33.471Z,73.82
2022-08-03T21:12:19.003Z,73.59
2022-08-03T21:15:06.918Z,74.17
2022-08-03T21:17:47.135Z,74.30
2022-08-03T21:20:22.266Z,74.40
2022-08-03T21:22:57.204Z,74.69
2022-08-03T21:25:32.887Z,74.68
2022-08-03T21:28:08.026Z,75.62
2022-08-03T21:30:40.074Z,76.43
2022-08-03T21:33:12.434Z,76.62
2022-08-03T21:35:46.404Z,76.35
2022-08-03T21:38:21.108Z,76.41
2022-08-03T21:41:03.316Z,76.04
2022-08-03T21:43:35.462Z,76.52
2022-08-03T21:46:08.373Z,76.99
2022-08-03T21:48:42.018Z,77.64
2022-08-03T21:51:19.323Z,77.68
2022-08-03T21:54:03.812Z,77.91
2022-08-03T21:56:42.160Z,78.21
2022-08-03T21:59:20.144Z,78.62
2022-08-03T22:01:55.400Z,78.73
2022-08-03T22:04:55.428Z,79.45
2022-08-03T22:07:28.331Z,79.79
2022-08-03T22:10:02.967Z,79.83
2022-08-03T22:12:35.959Z,80.18
2022-08-03T22:15:12.199Z,80.36
2022-08-03T22:17:55.916Z,79.95
2022-08-03T22:20:29.485Z,80.63
2022-08-03T22:23:06.317Z,81.23
2022-08-03T22:25:40.654Z,81.13
2022-08-03T22:28:15.604Z,81.62
2022-08-03T22:30:48.662Z,81.07
2022-08-03T22:33:21.216Z,80.66
2022-08-03T22:35:57.754Z,81.26
2022-08-03T22:38:32.720Z,80.67
2022-08-03T22:41:05.872Z,81.17
2022-08-03T22:43:38.276Z,80.93
2022-08-03T22:46:15.548Z,81.11
2022-08-03T22:48:51.600Z,81.36
2022-08-03T22:51:23.785Z,81.04
2022-08-03T22:53:56.330Z,81.00
2022-08-03T22:56:28.481Z,81.27
2022-08-03T22:59:00.550Z,82.05
2022-08-03T23:01:41.508Z,81.55
2022-08-03T23:04:13.484Z,81.53
2022-08-03T23:06:49.550Z,81.90
2022-08-03T23:09:24.374Z,82.06
2022-08-03T23:11:57.933Z,81.91
2022-08-03T23:14:33.648Z,82.14
2022-08-03T23:17:06.531Z,82.37
2022-08-03T23:19:44.768Z,82.91
2022-08-03T23:22:29.378Z,82.86
2022-08-03T23:25:04.113Z,82.90
2022-08-03T23:27:40.549Z,82.98
2022-08-03T23:30:13.632Z,83.48
2022-08-03T23:32:46.838Z,83.59
2022-08-03T23:36:29.113Z,83.23
2022-08-03T23:38:38.064Z,83.55
2022-08-03T23:41:10.539Z,83.36
2022-08-03T23:43:51.827Z,82.79
2022-08-03T23:46:27.627Z,83.36
2022-08-03T23:49:00.663Z,83.40
2022-08-03T23:52:17.542Z,83.94
2022-08-03T23:55:03.777Z,83.34
2022-08-03T23:57:45.324Z,83.13
